sensor_id;sensor_type;location;lat;lon;timestamp;pressure;altitude;pressure_sealevel;temperature;humidity
29383;BME280;16365;51.598;7.668;2022-10-15T00:00:33;100095.38;;;20.33;49.65
29383;BME280;16365;51.598;7.668;2022-10-15T00:02:59;100094.97;;;20.35;49.51
29383;BME280;16365;51.598;7.668;2022-10-15T00:05:26;100090.97;;;20.32;49.70
29383;BME280;16365;51.598;7.668;2022-10-15T00:07:52;100090.53;;;20.34;49.65
29383;BME280;16365;51.598;7.668;2022-10-15T00:10:18;100089.75;;;20.33;49.61
29383;BME280;16365;51.598;7.668;2022-10-15T00:12:45;100088.16;;;20.32;49.51
29383;BME280;16365;51.598;7.668;2022-10-15T00:15:11;100086.13;;;20.33;49.54
29383;BME280;16365;51.598;7.668;2022-10-15T00:17:37;100082.53;;;20.32;49.81
29383;BME280;16365;51.598;7.668;2022-10-15T00:20:05;100082.53;;;20.32;49.79
29383;BME280;16365;51.598;7.668;2022-10-15T00:22:31;100081.72;;;20.32;49.71
29383;BME280;16365;51.598;7.668;2022-10-15T00:24:58;100083.31;;;20.33;49.55
29383;BME280;16365;51.598;7.668;2022-10-15T00:27:24;100082.53;;;20.32;49.64
29383;BME280;16365;51.598;7.668;2022-10-15T00:29:50;100081.72;;;20.32;49.19
29383;BME280;16365;51.598;7.668;2022-10-15T00:32:17;100076.09;;;20.32;49.57
29383;BME280;16365;51.598;7.668;2022-10-15T00:34:43;100086.16;;;20.29;49.67
29383;BME280;16365;51.598;7.668;2022-10-15T00:37:09;100074.50;;;20.27;49.59
29383;BME280;16365;51.598;7.668;2022-10-15T00:39:36;100074.09;;;20.25;49.56
29383;BME280;16365;51.598;7.668;2022-10-15T00:42:03;100068.88;;;20.23;49.58
29383;BME280;16365;51.598;7.668;2022-10-15T00:47:05;100064.06;;;20.20;49.58
29383;BME280;16365;51.598;7.668;2022-10-15T00:49:33;100062.47;;;20.19;49.65
29383;BME280;16365;51.598;7.668;2022-10-15T00:54:31;100069.31;;;20.18;49.48
29383;BME280;16365;51.598;7.668;2022-10-15T00:56:59;100073.34;;;20.17;49.49
29383;BME280;16365;51.598;7.668;2022-10-15T00:59:25;100060.88;;;20.18;49.61
29383;BME280;16365;51.598;7.668;2022-10-15T01:01:53;100062.09;;;20.17;49.73
29383;BME280;16365;51.598;7.668;2022-10-15T01:04:19;100059.28;;;20.17;49.84
29383;BME280;16365;51.598;7.668;2022-10-15T01:06:46;100055.25;;;20.18;49.87
29383;BME280;16365;51.598;7.668;2022-10-15T01:09:12;100061.66;;;20.19;49.65
29383;BME280;16365;51.598;7.668;2022-10-15T01:11:40;100063.25;;;20.20;49.83
29383;BME280;16365;51.598;7.668;2022-10-15T01:14:12;100059.22;;;20.21;49.90
29383;BME280;16365;51.598;7.668;2022-10-15T01:17:17;100061.66;;;20.22;49.71
29383;BME280;16365;51.598;7.668;2022-10-15T01:33:23;100050.34;;;20.33;50.06
29383;BME280;16365;51.598;7.668;2022-10-15T01:38:18;100062.38;;;20.37;50.02
29383;BME280;16365;51.598;7.668;2022-10-15T01:40:49;100045.88;;;20.39;49.83
29383;BME280;16365;51.598;7.668;2022-10-15T01:43:21;100056.75;;;20.41;49.89
29383;BME280;16365;51.598;7.668;2022-10-15T01:45:51;100056.31;;;20.42;50.04
29383;BME280;16365;51.598;7.668;2022-10-15T01:48:21;100053.09;;;20.44;49.84
29383;BME280;16365;51.598;7.668;2022-10-15T01:50:51;100056.69;;;20.44;49.75
29383;BME280;16365;51.598;7.668;2022-10-15T01:53:19;100057.91;;;20.43;49.64
29383;BME280;16365;51.598;7.668;2022-10-15T01:55:59;100064.75;;;20.42;49.78
29383;BME280;16365;51.598;7.668;2022-10-15T01:58:26;100068.00;;;20.41;49.68
29383;BME280;16365;51.598;7.668;2022-10-15T02:00:55;100058.34;;;20.38;49.72
29383;BME280;16365;51.598;7.668;2022-10-15T02:03:22;100061.59;;;20.37;49.62
29383;BME280;16365;51.598;7.668;2022-10-15T02:05:52;100065.19;;;20.37;49.63
29383;BME280;16365;51.598;7.668;2022-10-15T02:09:11;100061.19;;;20.35;49.61
29383;BME280;16365;51.598;7.668;2022-10-15T02:11:11;100060.81;;;20.33;49.68
29383;BME280;16365;51.598;7.668;2022-10-15T02:16:39;100056.38;;;20.32;49.78
29383;BME280;16365;51.598;7.668;2022-10-15T02:21:47;100054.38;;;20.32;49.82
29383;BME280;16365;51.598;7.668;2022-10-15T02:24:19;100058.78;;;20.33;49.78
29383;BME280;16365;51.598;7.668;2022-10-15T02:26:47;100058.41;;;20.31;49.86
29383;BME280;16365;51.598;7.668;2022-10-15T02:29:15;100049.53;;;20.33;49.92
29383;BME280;16365;51.598;7.668;2022-10-15T02:31:43;100047.09;;;20.35;49.89
29383;BME280;16365;51.598;7.668;2022-10-15T02:34:14;100050.72;;;20.35;50.03
29383;BME280;16365;51.598;7.668;2022-10-15T02:36:43;100042.66;;;20.37;49.92
29383;BME280;16365;51.598;7.668;2022-10-15T02:39:10;100052.72;;;20.38;50.12
29383;BME280;16365;51.598;7.668;2022-10-15T02:41:37;100047.88;;;20.39;49.94
29383;BME280;16365;51.598;7.668;2022-10-15T02:44:04;100053.09;;;20.40;49.67
29383;BME280;16365;51.598;7.668;2022-10-15T02:46:30;100046.28;;;20.41;50.00
29383;BME280;16365;51.598;7.668;2022-10-15T02:48:56;100042.25;;;20.42;50.00
29383;BME280;16365;51.598;7.668;2022-10-15T02:51:23;100043.84;;;20.43;50.05
29383;BME280;16365;51.598;7.668;2022-10-15T02:53:49;100045.44;;;20.44;49.98
29383;BME280;16365;51.598;7.668;2022-10-15T02:56:15;100055.50;;;20.45;49.88
29383;BME280;16365;51.598;7.668;2022-10-15T02:58:42;100057.09;;;20.46;49.92
29383;BME280;16365;51.598;7.668;2022-10-15T03:01:08;100052.31;;;20.47;49.99
29383;BME280;16365;51.598;7.668;2022-10-15T03:03:34;100058.31;;;20.49;50.05
29383;BME280;16365;51.598;7.668;2022-10-15T03:06:01;100051.47;;;20.50;50.05
29383;BME280;16365;51.598;7.668;2022-10-15T03:08:28;100056.69;;;20.51;50.14
29383;BME280;16365;51.598;7.668;2022-10-15T03:10:54;100049.44;;;20.54;49.97
29383;BME280;16365;51.598;7.668;2022-10-15T03:13:20;100053.44;;;20.57;50.04
29383;BME280;16365;51.598;7.668;2022-10-15T03:15:47;100049.00;;;20.59;50.17
29383;BME280;16365;51.598;7.668;2022-10-15T03:18:13;100063.88;;;20.60;50.03
29383;BME280;16365;51.598;7.668;2022-10-15T03:20:39;100062.25;;;20.62;50.17
29383;BME280;16365;51.598;7.668;2022-10-15T03:23:06;100069.50;;;20.63;50.04
29383;BME280;16365;51.598;7.668;2022-10-15T03:25:32;100060.66;;;20.65;50.25
29383;BME280;16365;51.598;7.668;2022-10-15T03:27:59;100065.44;;;20.68;50.25
29383;BME280;16365;51.598;7.668;2022-10-15T03:30:25;100048.13;;;20.69;50.18
29383;BME280;16365;51.598;7.668;2022-10-15T03:32:51;100053.34;;;20.71;50.02
29383;BME280;16365;51.598;7.668;2022-10-15T03:35:18;100047.28;;;20.72;50.31
29383;BME280;16365;51.598;7.668;2022-10-15T03:37:44;100044.88;;;20.74;50.21
29383;BME280;16365;51.598;7.668;2022-10-15T03:40:10;100046.47;;;20.75;50.23
29383;BME280;16365;51.598;7.668;2022-10-15T03:42:39;100044.03;;;20.77;50.01
29383;BME280;16365;51.598;7.668;2022-10-15T03:45:06;100041.22;;;20.77;50.18
29383;BME280;16365;51.598;7.668;2022-10-15T03:47:32;100032.34;;;20.79;50.11
29383;BME280;16365;51.598;7.668;2022-10-15T03:49:59;100029.13;;;20.81;50.21
29383;BME280;16365;51.598;7.668;2022-10-15T03:52:25;100035.56;;;20.81;50.02
29383;BME280;16365;51.598;7.668;2022-10-15T03:54:51;100030.72;;;20.82;50.19
29383;BME280;16365;51.598;7.668;2022-10-15T03:57:18;100035.94;;;20.83;50.22
29383;BME280;16365;51.598;7.668;2022-10-15T03:59:44;100050.03;;;20.83;50.09
29383;BME280;16365;51.598;7.668;2022-10-15T04:02:11;100035.94;;;20.83;50.16
29383;BME280;16365;51.598;7.668;2022-10-15T04:04:37;100029.91;;;20.85;50.01
29383;BME280;16365;51.598;7.668;2022-10-15T04:07:03;100035.13;;;20.86;50.06
29383;BME280;16365;51.598;7.668;2022-10-15T04:09:30;100026.66;;;20.86;50.12
29383;BME280;16365;51.598;7.668;2022-10-15T04:11:56;100024.28;;;20.85;49.95
29383;BME280;16365;51.598;7.668;2022-10-15T04:14:22;100030.72;;;20.85;50.00
29383;BME280;16365;51.598;7.668;2022-10-15T04:16:49;100025.06;;;20.85;50.18
29383;BME280;16365;51.598;7.668;2022-10-15T04:19:15;100028.28;;;20.84;50.14
29383;BME280;16365;51.598;7.668;2022-10-15T04:21:42;100025.47;;;20.84;50.07
29383;BME280;16365;51.598;7.668;2022-10-15T04:24:08;100028.72;;;20.82;50.22
29383;BME280;16365;51.598;7.668;2022-10-15T04:26:35;100029.50;;;20.83;50.23
29383;BME280;16365;51.598;7.668;2022-10-15T04:29:01;100023.06;;;20.82;50.27
29383;BME280;16365;51.598;7.668;2022-10-15T04:31:28;100031.94;;;20.81;50.03
29383;BME280;16365;51.598;7.668;2022-10-15T04:33:54;100033.53;;;20.82;49.92
29383;BME280;16365;51.598;7.668;2022-10-15T04:36:20;100036.00;;;20.79;50.00
29383;BME280;16365;51.598;7.668;2022-10-15T04:38:46;100037.19;;;20.78;50.02
29383;BME280;16365;51.598;7.668;2022-10-15T04:41:13;100040.06;;;20.75;49.87
29383;BME280;16365;51.598;7.668;2022-10-15T04:43:39;100042.47;;;20.73;49.99
29383;BME280;16365;51.598;7.668;2022-10-15T04:46:06;100049.31;;;20.72;49.90
29383;BME280;16365;51.598;7.668;2022-10-15T04:48:34;100044.09;;;20.70;50.04
29383;BME280;16365;51.598;7.668;2022-10-15T04:51:06;100048.13;;;20.69;50.03
29383;BME280;16365;51.598;7.668;2022-10-15T04:53:32;100047.75;;;20.67;49.88
29383;BME280;16365;51.598;7.668;2022-10-15T04:56:00;100048.97;;;20.66;49.96
29383;BME280;16365;51.598;7.668;2022-10-15T04:58:28;100049.38;;;20.65;50.11
29383;BME280;16365;51.598;7.668;2022-10-15T05:00:57;100055.00;;;20.65;50.08
29383;BME280;16365;51.598;7.668;2022-10-15T05:03:24;100056.19;;;20.64;49.85
29383;BME280;16365;51.598;7.668;2022-10-15T05:05:50;100048.97;;;20.63;50.25
29383;BME280;16365;51.598;7.668;2022-10-15T05:08:16;100054.22;;;20.61;50.01
29383;BME280;16365;51.598;7.668;2022-10-15T05:10:43;100042.16;;;20.60;50.07
29383;BME280;16365;51.598;7.668;2022-10-15T05:13:09;100045.78;;;20.61;49.99
29383;BME280;16365;51.598;7.668;2022-10-15T05:15:36;100050.19;;;20.62;49.91
29383;BME280;16365;51.598;7.668;2022-10-15T05:18:02;100058.25;;;20.60;50.00
29383;BME280;16365;51.598;7.668;2022-10-15T05:20:28;100063.06;;;20.59;50.04
29383;BME280;16365;51.598;7.668;2022-10-15T05:22:55;100052.22;;;20.58;50.05
29383;BME280;16365;51.598;7.668;2022-10-15T05:25:21;100045.00;;;20.57;50.22
29383;BME280;16365;51.598;7.668;2022-10-15T05:27:47;100047.41;;;20.54;50.12
29383;BME280;16365;51.598;7.668;2022-10-15T05:30:16;100041.41;;;20.52;49.85
29383;BME280;16365;51.598;7.668;2022-10-15T05:32:42;100042.63;;;20.51;49.89
29383;BME280;16365;51.598;7.668;2022-10-15T05:35:09;100045.81;;;20.50;50.01
29383;BME280;16365;51.598;7.668;2022-10-15T05:37:35;100043.44;;;20.48;49.77
29383;BME280;16365;51.598;7.668;2022-10-15T05:40:01;100038.22;;;20.47;49.88
29383;BME280;16365;51.598;7.668;2022-10-15T05:42:27;100049.03;;;20.45;49.91
29383;BME280;16365;51.598;7.668;2022-10-15T05:44:54;100049.03;;;20.45;50.03
29383;BME280;16365;51.598;7.668;2022-10-15T05:47:20;100043.03;;;20.43;49.94
29383;BME280;16365;51.598;7.668;2022-10-15T05:49:47;100053.09;;;20.44;49.92
29383;BME280;16365;51.598;7.668;2022-10-15T05:52:13;100044.25;;;20.42;50.18
29383;BME280;16365;51.598;7.668;2022-10-15T05:54:40;100043.03;;;20.43;50.01
29383;BME280;16365;51.598;7.668;2022-10-15T05:57:06;100039.44;;;20.42;50.07
29383;BME280;16365;51.598;7.668;2022-10-15T05:59:33;100040.66;;;20.41;50.04
29383;BME280;16365;51.598;7.668;2022-10-15T06:01:59;100046.66;;;20.40;49.91
29383;BME280;16365;51.598;7.668;2022-10-15T06:04:25;100037.41;;;20.39;50.06
29383;BME280;16365;51.598;7.668;2022-10-15T06:06:57;100037.84;;;20.38;49.96
29383;BME280;16365;51.598;7.668;2022-10-15T06:09:23;100037.03;;;20.37;49.93
29383;BME280;16365;51.598;7.668;2022-10-15T06:11:50;100035.44;;;20.36;49.88
29383;BME280;16365;51.598;7.668;2022-10-15T06:14:16;100038.66;;;20.35;49.79
29383;BME280;16365;51.598;7.668;2022-10-15T06:16:43;100043.91;;;20.33;49.80
29383;BME280;16365;51.598;7.668;2022-10-15T06:19:09;100054.75;;;20.31;49.97
29383;BME280;16365;51.598;7.668;2022-10-15T06:21:36;100062.03;;;20.28;49.73
29383;BME280;16365;51.598;7.668;2022-10-15T06:24:02;100075.31;;;20.24;49.83
29383;BME280;16365;51.598;7.668;2022-10-15T06:26:34;100073.31;;;20.21;49.93
29383;BME280;16365;51.598;7.668;2022-10-15T06:29:00;100076.97;;;20.18;49.93
29383;BME280;16365;51.598;7.668;2022-10-15T06:31:27;100081.38;;;20.15;49.84
29383;BME280;16365;51.598;7.668;2022-10-15T06:33:53;100084.22;;;20.12;49.70
29383;BME280;16365;51.598;7.668;2022-10-15T06:36:19;100083.41;;;20.11;49.75
29383;BME280;16365;51.598;7.668;2022-10-15T06:38:46;100073.78;;;20.09;49.96
29383;BME280;16365;51.598;7.668;2022-10-15T06:41:13;100076.59;;;20.09;49.99
29383;BME280;16365;51.598;7.668;2022-10-15T06:43:39;100077.81;;;20.08;49.97
29383;BME280;16365;51.598;7.668;2022-10-15T06:46:06;100082.22;;;20.09;50.11
29383;BME280;16365;51.598;7.668;2022-10-15T06:48:32;100083.41;;;20.11;50.09
29383;BME280;16365;51.598;7.668;2022-10-15T06:50:59;100088.22;;;20.14;50.27
29383;BME280;16365;51.598;7.668;2022-10-15T06:53:26;100083.38;;;20.18;50.24
29383;BME280;16365;51.598;7.668;2022-10-15T06:55:56;100085.78;;;20.23;50.33
29383;BME280;16365;51.598;7.668;2022-10-15T06:58:23;100081.72;;;20.28;50.31
29383;BME280;16365;51.598;7.668;2022-10-15T07:00:49;100082.09;;;20.34;50.36
29383;BME280;16365;51.598;7.668;2022-10-15T07:03:15;100083.28;;;20.40;50.46
29383;BME280;16365;51.598;7.668;2022-10-15T07:05:42;100089.69;;;20.44;50.50
29383;BME280;16365;51.598;7.668;2022-10-15T07:08:08;100087.69;;;20.48;50.12
29383;BME280;16365;51.598;7.668;2022-10-15T07:10:34;100093.31;;;20.51;50.19
29383;BME280;16365;51.598;7.668;2022-10-15T07:13:01;100088.84;;;20.54;50.21
29383;BME280;16365;51.598;7.668;2022-10-15T07:15:27;100084.44;;;20.57;49.84
29383;BME280;16365;51.598;7.668;2022-10-15T07:17:54;100096.88;;;20.59;49.91
29383;BME280;16365;51.598;7.668;2022-10-15T07:20:27;100096.47;;;20.61;49.94
29383;BME280;16365;51.598;7.668;2022-10-15T07:22:55;100095.63;;;20.64;50.02
29383;BME280;16365;51.598;7.668;2022-10-15T07:25:21;100095.63;;;20.67;50.20
29383;BME280;16365;51.598;7.668;2022-10-15T07:27:48;100102.47;;;20.70;50.27
29383;BME280;16365;51.598;7.668;2022-10-15T07:30:14;100110.06;;;20.76;50.30
29383;BME280;16365;51.598;7.668;2022-10-15T07:32:43;100096.75;;;20.81;50.31
29383;BME280;16365;51.598;7.668;2022-10-15T07:35:11;100100.72;;;20.87;50.51
29383;BME280;16365;51.598;7.668;2022-10-15T07:37:38;100109.97;;;20.91;50.54
29383;BME280;16365;51.598;7.668;2022-10-15T07:40:05;100103.47;;;20.97;50.58
29383;BME280;16365;51.598;7.668;2022-10-15T07:42:31;100107.47;;;21.03;50.39
29383;BME280;16365;51.598;7.668;2022-10-15T07:44:58;100101.38;;;21.09;50.16
29383;BME280;16365;51.598;7.668;2022-10-15T07:47:24;100104.56;;;21.14;50.50
29383;BME280;16365;51.598;7.668;2022-10-15T07:49:51;100104.53;;;21.18;50.40
29383;BME280;16365;51.598;7.668;2022-10-15T07:52:17;100099.66;;;21.22;49.95
29383;BME280;16365;51.598;7.668;2022-10-15T07:54:43;100100.03;;;21.24;50.04
29383;BME280;16365;51.598;7.668;2022-10-15T07:57:10;100096.81;;;21.25;50.19
29383;BME280;16365;51.598;7.668;2022-10-15T07:59:36;100100.03;;;21.27;49.98
29383;BME280;16365;51.598;7.668;2022-10-15T08:02:03;100099.59;;;21.29;50.03
29383;BME280;16365;51.598;7.668;2022-10-15T08:04:30;100095.56;;;21.30;49.81
29383;BME280;16365;51.598;7.668;2022-10-15T08:06:56;100101.19;;;21.30;49.85
29383;BME280;16365;51.598;7.668;2022-10-15T08:09:22;100103.22;;;21.29;49.70
29383;BME280;16365;51.598;7.668;2022-10-15T08:11:48;100098.00;;;21.28;49.85
29383;BME280;16365;51.598;7.668;2022-10-15T08:14:15;100091.13;;;21.29;49.90
29383;BME280;16365;51.598;7.668;2022-10-15T08:16:41;100101.63;;;21.28;49.57
29383;BME280;16365;51.598;7.668;2022-10-15T08:19:07;100100.41;;;21.29;49.83
29383;BME280;16365;51.598;7.668;2022-10-15T08:21:33;100096.38;;;21.30;50.01
29383;BME280;16365;51.598;7.668;2022-10-15T08:24:00;100090.28;;;21.36;50.13
29383;BME280;16365;51.598;7.668;2022-10-15T08:26:26;100084.19;;;21.41;50.57
29383;BME280;16365;51.598;7.668;2022-10-15T08:28:52;100082.94;;;21.49;50.31
29383;BME280;16365;51.598;7.668;2022-10-15T08:31:19;100078.41;;;21.59;50.25
29383;BME280;16365;51.598;7.668;2022-10-15T08:33:45;100081.53;;;21.68;50.21
29383;BME280;16365;51.598;7.668;2022-10-15T08:36:11;100081.03;;;21.76;50.21
29383;BME280;16365;51.598;7.668;2022-10-15T08:38:37;100074.50;;;21.83;50.11
29383;BME280;16365;51.598;7.668;2022-10-15T08:41:04;100077.22;;;21.90;50.16
29383;BME280;16365;51.598;7.668;2022-10-15T08:43:39;100066.31;;;21.96;50.13
29383;BME280;16365;51.598;7.668;2022-10-15T08:46:12;100071.84;;;22.03;50.19
29383;BME280;16365;51.598;7.668;2022-10-15T08:48:41;100068.13;;;22.10;50.25
29383;BME280;16365;51.598;7.668;2022-10-15T08:51:10;100065.25;;;22.17;49.98
29383;BME280;16365;51.598;7.668;2022-10-15T08:53:38;100064.75;;;22.25;50.19
29383;BME280;16365;51.598;7.668;2022-10-15T08:56:11;100050.94;;;22.31;49.91
29383;BME280;16365;51.598;7.668;2022-10-15T08:58:46;100055.28;;;22.39;49.97
29383;BME280;16365;51.598;7.668;2022-10-15T09:03:50;100064.84;;;22.49;49.77
29383;BME280;16365;51.598;7.668;2022-10-15T09:06:23;100066.38;;;22.53;49.64
29383;BME280;16365;51.598;7.668;2022-10-15T09:14:30;100088.81;;;22.64;49.52
29383;BME280;16365;51.598;7.668;2022-10-15T09:16:58;100089.94;;;22.70;49.70
29383;BME280;16365;51.598;7.668;2022-10-15T09:19:28;100084.59;;;22.76;49.82
29383;BME280;16365;51.598;7.668;2022-10-15T09:21:56;100082.88;;;22.82;49.79
29383;BME280;16365;51.598;7.668;2022-10-15T09:24:27;100075.53;;;22.88;49.70
29383;BME280;16365;51.598;7.668;2022-10-15T09:29:32;100062.84;;;23.00;49.69
29383;BME280;16365;51.598;7.668;2022-10-15T09:35:18;100062.63;;;23.14;49.70
29383;BME280;16365;51.598;7.668;2022-10-15T09:37:23;100058.84;;;23.21;49.55
29383;BME280;16365;51.598;7.668;2022-10-15T09:42:39;100055.47;;;23.29;49.29
29383;BME280;16365;51.598;7.668;2022-10-15T09:45:11;100061.09;;;23.33;49.15
29383;BME280;16365;51.598;7.668;2022-10-15T09:47:41;100055.38;;;23.37;49.25
29383;BME280;16365;51.598;7.668;2022-10-15T09:50:09;100060.09;;;23.43;49.55
29383;BME280;16365;51.598;7.668;2022-10-15T09:52:44;100041.75;;;23.51;49.61
29383;BME280;16365;51.598;7.668;2022-10-15T09:57:50;100043.34;;;23.76;49.64
29383;BME280;16365;51.598;7.668;2022-10-15T10:00:18;100040.66;;;23.89;49.70
29383;BME280;16365;51.598;7.668;2022-10-15T10:02:55;100044.84;;;24.00;49.39
29383;BME280;16365;51.598;7.668;2022-10-15T10:05:29;100045.53;;;24.08;49.06
29383;BME280;16365;51.598;7.668;2022-10-15T10:08:06;100045.69;;;24.17;48.85
29383;BME280;16365;51.598;7.668;2022-10-15T10:10:33;100034.31;;;24.21;48.69
29383;BME280;16365;51.598;7.668;2022-10-15T10:13:00;100046.72;;;24.27;48.56
29383;BME280;16365;51.598;7.668;2022-10-15T10:15:36;100040.19;;;24.30;48.64
29383;BME280;16365;51.598;7.668;2022-10-15T10:18:08;100027.97;;;24.33;48.41
29383;BME280;16365;51.598;7.668;2022-10-15T10:20:50;100039.66;;;24.35;48.33
29383;BME280;16365;51.598;7.668;2022-10-15T10:23:21;100040.84;;;24.38;48.23
29383;BME280;16365;51.598;7.668;2022-10-15T10:25:49;100031.47;;;24.41;47.99
29383;BME280;16365;51.598;7.668;2022-10-15T10:28:21;100021.72;;;24.42;47.89
29383;BME280;16365;51.598;7.668;2022-10-15T10:33:27;100016.88;;;24.42;47.72
29383;BME280;16365;51.598;7.668;2022-10-15T10:35:54;100021.28;;;24.43;47.89
29383;BME280;16365;51.598;7.668;2022-10-15T10:38:23;100016.34;;;24.47;47.99
29383;BME280;16365;51.598;7.668;2022-10-15T10:40:52;100014.56;;;24.53;48.16
29383;BME280;16365;51.598;7.668;2022-10-15T10:43:25;100007.94;;;24.60;48.24
29383;BME280;16365;51.598;7.668;2022-10-15T10:46:00;100008.19;;;24.66;48.03
29383;BME280;16365;51.598;7.668;2022-10-15T10:48:28;100009.72;;;24.70;47.86
29383;BME280;16365;51.598;7.668;2022-10-15T10:51:03;99995.13;;;24.72;47.65
29383;BME280;16365;51.598;7.668;2022-10-15T10:53:37;99999.88;;;24.75;47.62
29383;BME280;16365;51.598;7.668;2022-10-15T10:56:06;99999.78;;;24.78;47.77
29383;BME280;16365;51.598;7.668;2022-10-15T10:58:35;100013.09;;;24.81;47.77
29383;BME280;16365;51.598;7.668;2022-10-15T11:01:01;100006.97;;;24.83;47.57
29383;BME280;16365;51.598;7.668;2022-10-15T11:06:07;100000.84;;;24.84;47.27
29383;BME280;16365;51.598;7.668;2022-10-15T11:29:54;99968.25;;;24.93;47.48
29383;BME280;16365;51.598;7.668;2022-10-15T11:32:38;99962.50;;;24.96;47.71
29383;BME280;16365;51.598;7.668;2022-10-15T11:44:12;99967.91;;;25.07;47.20
29383;BME280;16365;51.598;7.668;2022-10-15T11:54:30;99955.91;;;24.99;47.14
29383;BME280;16365;51.598;7.668;2022-10-15T11:57:00;99950.69;;;24.98;47.18
29383;BME280;16365;51.598;7.668;2022-10-15T11:59:46;99936.97;;;24.96;47.43
29383;BME280;16365;51.598;7.668;2022-10-15T12:02:20;99930.91;;;24.94;47.46
29383;BME280;16365;51.598;7.668;2022-10-15T12:04:58;99931.72;;;24.95;47.34
29383;BME280;16365;51.598;7.668;2022-10-15T12:07:27;99928.00;;;24.98;47.56
29383;BME280;16365;51.598;7.668;2022-10-15T12:10:04;99933.66;;;24.98;47.74
29383;BME280;16365;51.598;7.668;2022-10-15T12:12:43;99921.00;;;25.02;47.68
29383;BME280;16365;51.598;7.668;2022-10-15T12:17:46;99920.19;;;25.02;47.61
29383;BME280;16365;51.598;7.668;2022-10-15T12:20:17;99921.00;;;25.02;47.43
29383;BME280;16365;51.598;7.668;2022-10-15T12:25:45;99916.13;;;25.03;47.28
29383;BME280;16365;51.598;7.668;2022-10-15T12:28:12;99906.81;;;25.02;47.36
29383;BME280;16365;51.598;7.668;2022-10-15T12:30:39;99911.59;;;25.05;47.39
29383;BME280;16365;51.598;7.668;2022-10-15T12:33:43;99905.03;;;25.08;47.68
29383;BME280;16365;51.598;7.668;2022-10-15T12:36:22;99908.13;;;25.14;47.74
29383;BME280;16365;51.598;7.668;2022-10-15T12:38:57;99900.69;;;25.20;47.80
29383;BME280;16365;51.598;7.668;2022-10-15T12:41:37;99898.88;;;25.26;47.68
29383;BME280;16365;51.598;7.668;2022-10-15T12:44:28;99898.78;;;25.30;47.47
29383;BME280;16365;51.598;7.668;2022-10-15T12:46:57;99888.13;;;25.34;47.04
29383;BME280;16365;51.598;7.668;2022-10-15T12:51:55;99886.78;;;25.38;47.25
29383;BME280;16365;51.598;7.668;2022-10-15T12:56:58;99889.41;;;25.46;47.27
29383;BME280;16365;51.598;7.668;2022-10-15T12:59:28;99900.31;;;25.47;47.13
29383;BME280;16365;51.598;7.668;2022-10-15T13:01:56;99890.56;;;25.48;46.94
29383;BME280;16365;51.598;7.668;2022-10-15T13:04:22;99879.22;;;25.48;46.71
29383;BME280;16365;51.598;7.668;2022-10-15T13:06:48;99889.31;;;25.49;47.05
29383;BME280;16365;51.598;7.668;2022-10-15T13:09:26;99880.00;;;25.49;47.20
29383;BME280;16365;51.598;7.668;2022-10-15T13:11:54;99873.88;;;25.50;46.98
29383;BME280;16365;51.598;7.668;2022-10-15T13:14:26;99867.72;;;25.52;47.13
29383;BME280;16365;51.598;7.668;2022-10-15T13:16:54;99872.97;;;25.53;47.12
29383;BME280;16365;51.598;7.668;2022-10-15T13:19:23;99875.69;;;25.57;47.18
29383;BME280;16365;51.598;7.668;2022-10-15T13:21:51;99882.06;;;25.61;47.07
29383;BME280;16365;51.598;7.668;2022-10-15T13:24:20;99879.91;;;25.65;47.11
29383;BME280;16365;51.598;7.668;2022-10-15T13:26:46;99888.31;;;25.69;47.26
29383;BME280;16365;51.598;7.668;2022-10-15T13:29:17;99889.00;;;25.73;47.06
29383;BME280;16365;51.598;7.668;2022-10-15T13:31:43;99898.69;;;25.75;47.16
29383;BME280;16365;51.598;7.668;2022-10-15T13:36:39;99884.38;;;25.79;46.93
29383;BME280;16365;51.598;7.668;2022-10-15T13:39:07;99894.50;;;25.80;46.83
29383;BME280;16365;51.598;7.668;2022-10-15T13:41:43;99889.16;;;25.82;46.75
29383;BME280;16365;51.598;7.668;2022-10-15T13:44:19;99886.31;;;25.82;46.98
29383;BME280;16365;51.598;7.668;2022-10-15T13:46:46;99879.41;;;25.83;47.04
29383;BME280;16365;51.598;7.668;2022-10-15T13:49:12;99883.81;;;25.84;46.85
29383;BME280;16365;51.598;7.668;2022-10-15T13:51:42;99880.97;;;25.84;47.03
29383;BME280;16365;51.598;7.668;2022-10-15T13:54:11;99878.16;;;25.84;46.75
29383;BME280;16365;51.598;7.668;2022-10-15T13:56:44;99882.56;;;25.85;46.96
29383;BME280;16365;51.598;7.668;2022-10-15T13:59:16;99883.72;;;25.87;46.89
29383;BME280;16365;51.598;7.668;2022-10-15T14:01:47;99884.50;;;25.88;47.06
29383;BME280;16365;51.598;7.668;2022-10-15T14:04:15;99877.91;;;25.91;46.95
29383;BME280;16365;51.598;7.668;2022-10-15T14:06:47;99879.84;;;25.94;47.04
29383;BME280;16365;51.598;7.668;2022-10-15T14:09:22;99885.06;;;25.96;46.99
29383;BME280;16365;51.598;7.668;2022-10-15T14:11:52;99877.69;;;25.98;47.13
29383;BME280;16365;51.598;7.668;2022-10-15T14:14:25;99881.66;;;26.01;46.99
29383;BME280;16365;51.598;7.668;2022-10-15T14:16:52;99886.53;;;26.00;46.73
29383;BME280;16365;51.598;7.668;2022-10-15T14:19:20;99889.38;;;26.00;46.79
29383;BME280;16365;51.598;7.668;2022-10-15T14:21:52;99894.75;;;25.98;46.42
29383;BME280;16365;51.598;7.668;2022-10-15T14:24:19;99887.91;;;25.96;46.49
29383;BME280;16365;51.598;7.668;2022-10-15T14:26:46;99891.69;;;25.93;46.30
29383;BME280;16365;51.598;7.668;2022-10-15T14:29:15;99888.47;;;25.91;46.87
29383;BME280;16365;51.598;7.668;2022-10-15T14:31:44;99895.88;;;25.88;46.59
29383;BME280;16365;51.598;7.668;2022-10-15T14:40:11;99891.97;;;25.82;46.57
29383;BME280;16365;51.598;7.668;2022-10-15T14:42:39;99886.75;;;25.80;46.61
29383;BME280;16365;51.598;7.668;2022-10-15T14:45:13;99898.59;;;25.79;46.83
29383;BME280;16365;51.598;7.668;2022-10-15T14:47:44;99892.91;;;25.79;46.63